Time;durP1;ratioP1;P1;durP2;ratioP2;P2;SDS_P1;SDS_P2;PMS_P1;PMS_P2;Temp;Humidity;BMP_temperature;BMP_pressure;BME280_temperature;BME280_humidity;BME280_pressure;Samples;Min_cycle;Max_cycle;Signal;HPM_P1;HPM_P2
2022/06/14 00:03:21;;;;;;;3.87;2.63;;;16.40;99.90;;;;;;5030789;28;20534;-45
2022/06/14 00:05:48;;;;;;;4.10;2.80;;;16.40;99.90;;;;;;5032978;28;20519;-45
2022/06/14 00:08:15;;;;;;;2.77;2.53;;;16.30;99.90;;;;;;5034556;28;20476;-50
2022/06/14 00:10:43;;;;;;;4.27;2.93;;;16.30;99.90;;;;;;5034428;28;20475;-45
2022/06/14 00:13:11;;;;;;;3.10;2.77;;;16.30;99.90;;;;;;5034687;28;20491;-45
2022/06/14 00:15:39;;;;;;;3.97;3.37;;;16.30;99.90;;;;;;5034681;28;20473;-44
2022/06/14 00:18:06;;;;;;;3.30;2.90;;;16.30;99.90;;;;;;5034165;28;20525;-51
2022/06/14 00:20:33;;;;;;;4.13;2.77;;;16.20;99.90;;;;;;5033995;28;20473;-49
2022/06/14 00:23:00;;;;;;;5.17;3.20;;;16.10;99.90;;;;;;5034422;28;20488;-45
2022/06/14 00:25:29;;;;;;;3.70;3.33;;;16.10;99.90;;;;;;5034420;28;20495;-44
2022/06/14 00:27:57;;;;;;;4.47;3.20;;;16.10;99.90;;;;;;5034158;28;20883;-45
2022/06/14 00:30:25;;;;;;;5.10;3.40;;;16.10;99.90;;;;;;5034048;28;20787;-44
2022/06/14 00:32:53;;;;;;;3.10;2.80;;;16.10;99.90;;;;;;5034301;28;20477;-45
2022/06/14 00:35:20;;;;;;;3.13;2.40;;;16.10;99.90;;;;;;5033968;28;21002;-45
2022/06/14 00:37:48;;;;;;;2.97;2.70;;;16.10;99.90;;;;;;5033910;28;20442;-46
2022/06/14 00:40:20;;;;;;;3.60;2.97;;;16.20;99.90;;;;;;5033668;28;20485;-44
2022/06/14 00:42:47;;;;;;;2.70;2.50;;;16.10;99.90;;;;;;5033748;28;21002;-46
2022/06/14 00:45:52;;;;;;;3.37;3.07;;;16.10;99.90;;;;;;5033711;28;20446;-45
2022/06/14 00:48:23;;;;;;;5.07;3.80;;;16.10;99.90;;;;;;5033942;28;20507;-45
2022/06/14 00:50:55;;;;;;;4.17;2.93;;;16.00;99.90;;;;;;5033611;28;20461;-45
2022/06/14 00:53:25;;;;;;;2.93;2.73;;;16.00;99.90;;;;;;5034253;28;20481;-45
2022/06/14 00:55:57;;;;;;;3.73;3.43;;;15.90;99.90;;;;;;5033797;28;20533;-45
2022/06/14 00:58:27;;;;;;;4.43;3.37;;;15.90;99.90;;;;;;5033580;28;20491;-48
2022/06/14 01:01:00;;;;;;;8.90;3.33;;;15.90;99.90;;;;;;5032968;28;20568;-45
2022/06/14 01:03:35;;;;;;;2.80;2.60;;;15.90;99.90;;;;;;5033615;28;20474;-44
2022/06/14 01:06:08;;;;;;;3.70;3.40;;;15.90;99.90;;;;;;5033524;28;20446;-44
2022/06/14 01:08:40;;;;;;;5.43;3.30;;;15.90;99.90;;;;;;5033408;28;21007;-45
2022/06/14 01:11:13;;;;;;;3.17;2.67;;;15.80;99.90;;;;;;5033547;28;20467;-45
2022/06/14 01:13:41;;;;;;;4.27;3.13;;;15.80;99.90;;;;;;5033466;28;20876;-45
2022/06/14 01:16:10;;;;;;;3.50;3.20;;;15.80;99.90;;;;;;5033281;28;20529;-44
2022/06/14 01:18:40;;;;;;;4.10;2.53;;;15.80;99.90;;;;;;5032723;28;20474;-46
2022/06/14 01:21:07;;;;;;;4.33;2.93;;;15.80;99.90;;;;;;5033153;28;20482;-44
2022/06/14 01:23:36;;;;;;;3.40;3.10;;;15.80;99.90;;;;;;5033328;28;20478;-45
2022/06/14 01:26:09;;;;;;;3.43;3.10;;;15.70;99.90;;;;;;5033230;28;20492;-46
2022/06/14 01:28:38;;;;;;;2.70;2.50;;;15.70;99.90;;;;;;5032909;28;20478;-44
2022/06/14 01:31:06;;;;;;;2.60;2.40;;;15.70;99.90;;;;;;5032911;28;21182;-44
2022/06/14 01:33:39;;;;;;;3.20;2.90;;;15.70;99.90;;;;;;5033193;28;20446;-44
2022/06/14 01:36:10;;;;;;;3.17;2.87;;;15.70;99.90;;;;;;5032844;28;20533;-45
2022/06/14 01:38:40;;;;;;;7.60;3.00;;;15.70;99.90;;;;;;5032774;28;20442;-45
2022/06/14 01:41:16;;;;;;;3.43;3.10;;;15.70;99.90;;;;;;5032666;28;20556;-45
2022/06/14 01:43:59;;;;;;;3.33;2.90;;;15.60;99.90;;;;;;5033125;28;20504;-45
2022/06/14 01:46:28;;;;;;;3.37;3.00;;;15.60;99.90;;;;;;5032975;28;20542;-44
2022/06/14 01:51:59;;;;;;;3.13;2.60;;;15.50;99.90;;;;;;5032284;28;20445;-45
2022/06/14 01:54:39;;;;;;;3.93;3.53;;;15.50;99.90;;;;;;5032917;28;20496;-45
2022/06/14 01:57:12;;;;;;;3.07;2.60;;;15.50;99.90;;;;;;5032481;28;20473;-45
2022/06/14 01:59:47;;;;;;;4.60;3.60;;;15.40;99.90;;;;;;5032149;28;20850;-48
2022/06/14 02:02:26;;;;;;;3.90;3.60;;;15.40;99.90;;;;;;5033720;28;20472;-47
2022/06/14 02:05:01;;;;;;;4.47;2.93;;;15.40;99.90;;;;;;5032613;28;20529;-44
2022/06/14 02:07:35;;;;;;;2.93;2.63;;;15.40;99.90;;;;;;5032368;28;20934;-45
2022/06/14 02:10:10;;;;;;;5.60;3.47;;;15.40;99.90;;;;;;5031998;28;20438;-45
2022/06/14 02:12:52;;;;;;;5.13;3.40;;;15.40;99.90;;;;;;5032118;28;20515;-45
2022/06/14 02:15:30;;;;;;;6.70;3.50;;;15.40;99.90;;;;;;5032140;28;20452;-44
2022/06/14 02:18:04;;;;;;;3.10;2.77;;;15.40;99.90;;;;;;5031787;28;20811;-46
2022/06/14 02:20:36;;;;;;;5.77;3.30;;;15.30;99.90;;;;;;5031284;28;20465;-45
2022/06/14 02:23:06;;;;;;;3.87;3.30;;;15.40;99.90;;;;;;5032395;28;20969;-47
2022/06/14 02:25:39;;;;;;;3.00;2.60;;;15.40;99.90;;;;;;5032187;28;20470;-45
2022/06/14 02:28:10;;;;;;;3.73;2.97;;;15.40;99.90;;;;;;5031207;28;21137;-46
2022/06/14 02:30:43;;;;;;;4.10;3.00;;;15.40;99.90;;;;;;5031838;28;20477;-49
2022/06/14 02:33:15;;;;;;;3.73;3.40;;;15.30;99.90;;;;;;5031913;28;20442;-46
2022/06/14 02:35:49;;;;;;;3.23;2.97;;;15.30;99.90;;;;;;5031735;28;20939;-45
2022/06/14 02:38:22;;;;;;;3.30;3.00;;;15.30;99.90;;;;;;5032113;28;20446;-47
2022/06/14 02:40:56;;;;;;;3.40;3.10;;;15.30;99.90;;;;;;5031422;28;20510;-44
2022/06/14 02:43:28;;;;;;;4.40;2.93;;;15.30;99.90;;;;;;5031642;28;20442;-45
2022/06/14 02:46:00;;;;;;;3.13;2.83;;;15.20;99.90;;;;;;5031564;28;20426;-45
2022/06/14 02:48:30;;;;;;;2.90;2.70;;;15.20;99.90;;;;;;5031423;28;20533;-46
2022/06/14 02:51:02;;;;;;;4.17;3.20;;;15.20;99.90;;;;;;5031405;28;20820;-45
2022/06/14 02:53:36;;;;;;;3.80;3.20;;;15.10;99.90;;;;;;5031367;28;20897;-46
2022/06/14 02:56:10;;;;;;;4.50;2.63;;;15.10;99.90;;;;;;5031408;28;20881;-44
2022/06/14 02:58:45;;;;;;;3.60;3.30;;;15.10;99.90;;;;;;5031746;28;20528;-45
2022/06/14 03:01:17;;;;;;;5.00;3.60;;;15.10;99.90;;;;;;5031415;28;20486;-45
2022/06/14 03:03:50;;;;;;;2.97;2.77;;;15.10;99.90;;;;;;5031358;28;20450;-44
2022/06/14 03:06:25;;;;;;;3.17;2.80;;;15.10;99.90;;;;;;5031172;28;20485;-45
2022/06/14 03:08:57;;;;;;;5.10;3.20;;;15.00;99.90;;;;;;5031131;28;20469;-48
2022/06/14 03:11:34;;;;;;;3.27;2.90;;;15.00;99.90;;;;;;5031186;28;20462;-46
2022/06/14 03:14:12;;;;;;;3.90;3.13;;;15.00;99.90;;;;;;5031399;28;20935;-45
2022/06/14 03:16:50;;;;;;;3.90;2.80;;;14.90;99.90;;;;;;5031692;28;20446;-47
2022/06/14 03:19:21;;;;;;;4.17;3.40;;;14.90;99.90;;;;;;5030600;28;20665;-48
2022/06/14 03:21:53;;;;;;;3.23;2.87;;;14.90;99.90;;;;;;5031488;28;20541;-45
2022/06/14 03:24:29;;;;;;;3.90;3.43;;;15.00;99.90;;;;;;5031083;28;20446;-45
2022/06/14 03:27:06;;;;;;;4.30;3.50;;;14.90;99.90;;;;;;5031115;28;20442;-45
2022/06/14 03:29:42;;;;;;;4.20;2.87;;;15.00;99.90;;;;;;5031101;28;20450;-45
2022/06/14 03:32:16;;;;;;;3.20;2.90;;;14.90;99.90;;;;;;5031028;28;21037;-47
2022/06/14 03:34:48;;;;;;;3.40;3.10;;;14.90;99.90;;;;;;5031044;28;20943;-45
2022/06/14 03:37:16;;;;;;;3.03;2.73;;;14.90;99.90;;;;;;5030553;28;20983;-47
2022/06/14 03:39:47;;;;;;;6.07;3.03;;;14.90;99.90;;;;;;5031352;28;20524;-45
2022/06/14 03:42:16;;;;;;;3.30;3.00;;;14.90;99.90;;;;;;5035034;28;20523;-47
2022/06/14 03:44:44;;;;;;;4.13;3.10;;;14.90;99.90;;;;;;5035078;28;20509;-44
2022/06/14 03:47:19;;;;;;;3.47;3.10;;;14.90;99.90;;;;;;5035229;28;20986;-45
2022/06/14 03:49:55;;;;;;;4.23;3.30;;;14.90;99.90;;;;;;5034722;28;20855;-45
2022/06/14 03:52:42;;;;;;;3.50;3.20;;;14.70;99.90;;;;;;5035078;28;20493;-45
2022/06/14 03:55:26;;;;;;;6.40;4.00;;;14.30;99.90;;;;;;5034957;28;20441;-47
2022/06/14 03:58:12;;;;;;;4.30;3.67;;;13.90;99.90;;;;;;5034889;28;20481;-45
2022/06/14 04:00:47;;;;;;;4.40;3.93;;;14.00;99.90;;;;;;5034482;28;20561;-45
2022/06/14 04:03:39;;;;;;;3.20;2.90;;;14.10;99.90;;;;;;5034650;28;20965;-44
2022/06/14 04:06:16;;;;;;;4.00;3.20;;;14.20;99.90;;;;;;5034736;28;20477;-45
2022/06/14 04:08:52;;;;;;;3.87;2.83;;;14.30;99.90;;;;;;5034159;28;20453;-48
2022/06/14 04:11:29;;;;;;;4.10;3.53;;;14.30;99.90;;;;;;5034446;28;20830;-44
2022/06/14 04:14:08;;;;;;;4.90;3.50;;;14.40;99.90;;;;;;5034495;28;20532;-49
2022/06/14 04:16:45;;;;;;;3.50;3.20;;;14.40;99.90;;;;;;5034194;28;20877;-45
2022/06/14 04:19:26;;;;;;;6.53;4.30;;;14.40;99.90;;;;;;5033973;28;20492;-49
2022/06/14 04:22:00;;;;;;;3.57;3.27;;;14.40;99.90;;;;;;5034381;28;20556;-45
2022/06/14 04:24:34;;;;;;;4.40;4.00;;;14.50;99.90;;;;;;5034279;28;20465;-44
2022/06/14 04:27:11;;;;;;;4.30;4.00;;;14.50;99.90;;;;;;5034311;28;20889;-45
2022/06/14 04:29:47;;;;;;;6.53;5.20;;;14.50;99.90;;;;;;5034047;28;20522;-45
2022/06/14 04:32:28;;;;;;;6.77;3.60;;;14.50;99.90;;;;;;5033960;28;20887;-44
2022/06/14 04:35:02;;;;;;;5.03;3.63;;;14.50;99.90;;;;;;5034006;28;20499;-45
2022/06/14 04:37:34;;;;;;;4.30;3.90;;;14.50;99.90;;;;;;5033587;28;20529;-47
2022/06/14 04:40:05;;;;;;;3.40;3.10;;;14.50;99.90;;;;;;5033987;28;20446;-45
2022/06/14 04:42:39;;;;;;;3.97;3.57;;;14.50;99.90;;;;;;5034107;28;20484;-46
2022/06/14 04:45:12;;;;;;;3.20;2.90;;;14.50;99.90;;;;;;5034066;28;20445;-46
2022/06/14 04:47:44;;;;;;;4.23;3.83;;;14.60;99.90;;;;;;5034345;28;20538;-44
2022/06/14 04:50:16;;;;;;;3.80;3.50;;;14.60;99.90;;;;;;5033763;28;20450;-46
2022/06/14 04:52:48;;;;;;;3.70;3.40;;;14.50;99.90;;;;;;5033713;28;20532;-46
2022/06/14 04:55:20;;;;;;;3.57;3.23;;;14.50;99.90;;;;;;5033951;28;20447;-46
2022/06/14 04:57:50;;;;;;;4.00;3.17;;;14.50;99.90;;;;;;5033744;28;20939;-46
2022/06/14 05:00:21;;;;;;;4.30;3.90;;;14.50;99.90;;;;;;5033207;28;20472;-44
2022/06/14 05:02:55;;;;;;;4.50;3.57;;;14.50;99.90;;;;;;5033453;28;20547;-44
2022/06/14 05:05:26;;;;;;;3.70;3.40;;;14.50;99.90;;;;;;5033528;28;20927;-45
2022/06/14 05:07:57;;;;;;;3.47;3.20;;;14.50;99.90;;;;;;5033698;28;20481;-47
2022/06/14 05:10:29;;;;;;;9.13;2.90;;;14.50;99.90;;;;;;5033123;28;20500;-45
2022/06/14 05:13:00;;;;;;;4.03;3.40;;;14.50;99.90;;;;;;5033376;28;20431;-44
2022/06/14 05:15:34;;;;;;;4.13;3.73;;;14.50;99.90;;;;;;5033570;28;20474;-46
2022/06/14 05:18:05;;;;;;;5.10;4.40;;;14.50;99.90;;;;;;5032994;28;20484;-48
2022/06/14 05:20:38;;;;;;;4.07;3.70;;;14.40;99.90;;;;;;5032700;28;20442;-45
2022/06/14 05:23:09;;;;;;;3.87;3.40;;;14.40;99.90;;;;;;5033454;28;20482;-45
2022/06/14 05:25:47;;;;;;;4.20;3.30;;;14.50;99.90;;;;;;5033419;28;20504;-49
2022/06/14 05:28:17;;;;;;;3.40;3.10;;;14.50;99.90;;;;;;5032956;28;20446;-45
2022/06/14 05:30:54;;;;;;;3.27;2.93;;;14.50;99.90;;;;;;5032736;28;20481;-45
2022/06/14 05:33:37;;;;;;;3.43;3.13;;;14.50;99.90;;;;;;5033501;28;20888;-45
2022/06/14 05:36:12;;;;;;;3.73;3.07;;;14.50;99.90;;;;;;5033216;28;20446;-45
2022/06/14 05:38:46;;;;;;;3.37;3.03;;;14.60;99.90;;;;;;5033165;28;20511;-44
2022/06/14 05:41:20;;;;;;;3.73;3.40;;;14.60;99.90;;;;;;5033013;28;20486;-44
2022/06/14 05:43:50;;;;;;;3.80;3.50;;;14.50;99.90;;;;;;5032920;28;20962;-46
2022/06/14 05:46:25;;;;;;;3.40;3.03;;;14.50;99.90;;;;;;5033046;28;20529;-49
2022/06/14 05:48:58;;;;;;;3.20;2.90;;;14.50;99.90;;;;;;5032497;28;20946;-45
2022/06/14 05:51:31;;;;;;;4.07;3.67;;;14.50;99.90;;;;;;5032562;28;20826;-45
2022/06/14 05:54:02;;;;;;;3.43;3.13;;;14.60;99.90;;;;;;5033278;28;20446;-45
2022/06/14 05:56:36;;;;;;;3.47;2.93;;;14.60;99.90;;;;;;5032722;28;20452;-45
2022/06/14 05:59:08;;;;;;;3.63;2.80;;;14.60;99.90;;;;;;5032087;28;20473;-45
2022/06/14 06:01:41;;;;;;;3.67;3.03;;;14.70;99.90;;;;;;5032468;28;20947;-45
2022/06/14 06:04:14;;;;;;;2.90;2.60;;;14.80;99.90;;;;;;5032289;28;20529;-46
2022/06/14 06:06:46;;;;;;;3.40;3.10;;;15.30;99.90;;;;;;5032268;28;20477;-48
2022/06/14 06:09:18;;;;;;;7.83;3.30;;;16.00;99.90;;;;;;5032209;28;20446;-44
2022/06/14 06:11:50;;;;;;;2.73;2.53;;;16.70;99.90;;;;;;5032396;28;20470;-45
2022/06/14 06:14:20;;;;;;;4.67;3.03;;;17.30;99.90;;;;;;5032262;28;20790;-44
2022/06/14 06:16:53;;;;;;;3.90;3.50;;;17.80;99.90;;;;;;5032015;28;20446;-47
2022/06/14 06:19:24;;;;;;;3.63;2.77;;;18.20;99.90;;;;;;5031902;28;20442;-47
2022/06/14 06:21:57;;;;;;;3.13;2.90;;;18.20;99.90;;;;;;5032130;28;20569;-45
2022/06/14 06:24:30;;;;;;;3.10;2.83;;;18.00;99.90;;;;;;5032126;28;20478;-47
2022/06/14 06:27:02;;;;;;;2.97;2.67;;;17.80;99.90;;;;;;5032462;28;20531;-45
2022/06/14 06:29:37;;;;;;;5.20;3.03;;;17.70;99.90;;;;;;5031772;28;20512;-45
2022/06/14 06:32:08;;;;;;;3.30;3.00;;;17.70;99.90;;;;;;5031812;28;20457;-46
2022/06/14 06:34:36;;;;;;;3.50;3.20;;;17.60;99.90;;;;;;5032254;28;20461;-45
2022/06/14 06:37:10;;;;;;;3.70;3.40;;;17.40;99.90;;;;;;5031446;28;20481;-45
2022/06/14 06:39:44;;;;;;;4.07;3.00;;;17.30;99.90;;;;;;5031341;28;20442;-48
2022/06/14 06:42:16;;;;;;;4.70;3.23;;;17.30;99.90;;;;;;5031816;28;20531;-45
2022/06/14 06:44:51;;;;;;;3.17;2.97;;;17.10;99.90;;;;;;5031975;28;20512;-45
2022/06/14 06:47:27;;;;;;;3.27;2.97;;;17.00;99.90;;;;;;5031901;28;20480;-45
2022/06/14 06:50:05;;;;;;;4.63;3.23;;;16.90;99.90;;;;;;5031256;28;20449;-45
2022/06/14 06:52:41;;;;;;;3.17;2.77;;;16.80;99.90;;;;;;5031749;28;20465;-46
2022/06/14 06:55:13;;;;;;;4.43;3.50;;;16.90;99.90;;;;;;5031799;28;20507;-46
2022/06/14 06:57:43;;;;;;;3.33;3.03;;;16.90;99.90;;;;;;5031345;28;20546;-45
2022/06/14 07:00:14;;;;;;;3.13;2.80;;;16.90;99.90;;;;;;5031171;28;20439;-45
2022/06/14 07:02:47;;;;;;;4.27;3.43;;;17.00;99.90;;;;;;5031102;28;20569;-45
2022/06/14 07:05:16;;;;;;;4.17;3.50;;;17.00;99.90;;;;;;5031459;28;20478;-45
2022/06/14 07:07:53;;;;;;;4.53;3.70;;;17.00;99.90;;;;;;5031470;28;20803;-45
2022/06/14 07:10:29;;;;;;;3.67;3.37;;;17.10;99.90;;;;;;5031224;28;20965;-49
2022/06/14 07:13:00;;;;;;;3.40;3.10;;;17.20;99.90;;;;;;5031826;28;20800;-45
2022/06/14 07:15:35;;;;;;;3.73;3.07;;;17.40;99.90;;;;;;5031509;28;20853;-45
2022/06/14 07:18:12;;;;;;;3.57;3.27;;;17.70;99.90;;;;;;5031493;28;20870;-45
2022/06/14 07:20:54;;;;;;;3.43;3.13;;;17.90;99.90;;;;;;5031239;28;20876;-45
2022/06/14 07:23:29;;;;;;;3.40;3.00;;;18.10;99.90;;;;;;5031162;28;20481;-45
2022/06/14 07:26:09;;;;;;;3.57;3.13;;;18.30;99.90;;;;;;5031290;28;20456;-46
2022/06/14 07:28:46;;;;;;;2.80;2.60;;;18.30;99.90;;;;;;5031229;28;20522;-46
2022/06/14 07:31:22;;;;;;;3.23;2.93;;;18.40;99.90;;;;;;5031087;28;21025;-45
2022/06/14 07:33:51;;;;;;;10.83;3.33;;;18.40;99.90;;;;;;5031146;28;20442;-45
2022/06/14 07:36:25;;;;;;;2.60;2.40;;;18.40;99.90;;;;;;5030906;28;20485;-45
2022/06/14 07:39:01;;;;;;;2.73;2.53;;;18.40;99.90;;;;;;5030825;28;20441;-47
2022/06/14 07:41:37;;;;;;;3.40;3.10;;;18.50;99.90;;;;;;5030837;28;20565;-49
2022/06/14 07:44:13;;;;;;;4.80;3.13;;;18.40;99.90;;;;;;5031090;28;20474;-45
2022/06/14 07:46:51;;;;;;;3.50;3.20;;;18.20;99.90;;;;;;5031114;28;20492;-45
2022/06/14 07:49:24;;;;;;;3.80;3.50;;;18.20;99.90;;;;;;5030870;28;20481;-45
2022/06/14 07:51:54;;;;;;;3.53;3.23;;;18.30;99.90;;;;;;5030677;28;20462;-48
2022/06/14 07:54:28;;;;;;;3.20;2.90;;;18.40;99.90;;;;;;5031141;28;20783;-47
2022/06/14 07:56:58;;;;;;;3.40;3.10;;;18.60;99.90;;;;;;5031061;28;20446;-45
2022/06/14 07:59:31;;;;;;;3.83;3.03;;;18.90;99.90;;;;;;5030751;28;20438;-49
2022/06/14 08:02:03;;;;;;;4.57;3.00;;;19.00;99.90;;;;;;5031781;28;20481;-47
2022/06/14 08:04:38;;;;;;;3.93;2.97;;;19.10;99.90;;;;;;5030829;28;20533;-49
2022/06/14 08:07:10;;;;;;;4.17;3.00;;;19.00;99.90;;;;;;5031118;28;20537;-47
2022/06/14 08:09:42;;;;;;;4.23;3.37;;;19.10;99.90;;;;;;5030887;28;20446;-45
2022/06/14 08:12:16;;;;;;;3.07;2.87;;;19.20;99.90;;;;;;5030672;28;20485;-45
2022/06/14 08:14:48;;;;;;;3.73;3.43;;;19.00;99.90;;;;;;5030539;28;20450;-46
2022/06/14 08:17:20;;;;;;;5.03;4.00;;;19.20;99.90;;;;;;5030902;28;20470;-46
2022/06/14 08:19:54;;;;;;;3.70;3.20;;;19.50;99.90;;;;;;5029888;28;20939;-45
2022/06/14 08:22:29;;;;;;;3.50;3.10;;;19.60;99.90;;;;;;5030553;28;21022;-45
2022/06/14 08:25:02;;;;;;;3.70;3.30;;;19.50;99.90;;;;;;5030779;28;20446;-47
2022/06/14 08:27:35;;;;;;;4.73;4.10;;;19.70;99.90;;;;;;5034165;28;20849;-47
2022/06/14 08:30:06;;;;;;;4.13;3.50;;;19.80;99.90;;;;;;5034014;28;20449;-45
2022/06/14 08:32:39;;;;;;;3.80;3.50;;;20.00;99.90;;;;;;5033915;28;20915;-45
2022/06/14 08:35:14;;;;;;;3.77;3.23;;;20.10;99.90;;;;;;5033813;28;20442;-47
2022/06/14 08:37:45;;;;;;;4.50;3.90;;;20.10;99.90;;;;;;5034178;28;20446;-47
2022/06/14 08:40:32;;;;;;;4.43;3.30;;;20.10;99.90;;;;;;5033693;28;20939;-48
2022/06/14 08:43:02;;;;;;;3.43;3.13;;;20.00;99.90;;;;;;5033759;28;20513;-46
2022/06/14 08:45:37;;;;;;;3.70;3.40;;;20.00;99.90;;;;;;5034026;28;20493;-48
2022/06/14 08:48:09;;;;;;;3.40;3.20;;;20.20;99.90;;;;;;5033955;28;20537;-49
2022/06/14 08:50:57;;;;;;;4.40;3.20;;;20.00;99.90;;;;;;5033955;28;20441;-43
2022/06/14 08:54:14;;;;;;;4.47;3.30;;;20.10;99.90;;;;;;5033711;28;20446;-45
2022/06/14 08:57:04;;;;;;;6.00;3.40;;;20.10;99.90;;;;;;5033401;28;20950;-46
2022/06/14 08:59:50;;;;;;;5.27;3.13;;;20.30;99.90;;;;;;5033461;28;20484;-49
2022/06/14 09:02:59;;;;;;;4.20;3.50;;;20.30;99.90;;;;;;5033280;28;20882;-48
2022/06/14 09:05:48;;;;;;;3.37;3.00;;;20.60;99.90;;;;;;5033680;28;20470;-47
2022/06/14 09:08:49;;;;;;;3.73;3.30;;;20.80;99.90;;;;;;5033651;28;20740;-45
2022/06/14 09:11:54;;;;;;;4.50;3.03;;;20.90;99.90;;;;;;5033479;28;20454;-45
2022/06/14 09:14:51;;;;;;;2.60;2.40;;;20.60;99.90;;;;;;5005281;28;20894;-45
2022/06/14 09:17:43;;;;;;;4.63;3.70;;;20.90;99.90;;;;;;5033369;28;20808;-45
2022/06/14 09:20:19;;;;;;;7.03;3.73;;;21.30;99.90;;;;;;5032853;28;20488;-46
2022/06/14 09:23:02;;;;;;;3.60;3.30;;;21.40;99.90;;;;;;5033253;28;20574;-46
2022/06/14 09:25:41;;;;;;;3.40;2.80;;;21.50;99.90;;;;;;5033534;28;20455;-46
2022/06/14 09:28:49;;;;;;;3.53;3.27;;;21.60;99.90;;;;;;5033346;28;20442;-45
2022/06/14 09:31:30;;;;;;;4.93;3.17;;;21.70;99.90;;;;;;5018761;28;21035;-45
2022/06/14 09:34:27;;;;;;;3.57;3.27;;;21.70;99.90;;;;;;5033175;28;20431;-47
2022/06/14 09:37:26;;;;;;;3.33;3.03;;;21.50;99.90;;;;;;5032175;28;20442;-47
2022/06/14 09:40:31;;;;;;;4.73;3.77;;;21.40;99.90;;;;;;5032636;28;20474;-47
2022/06/14 09:43:42;;;;;;;5.63;3.47;;;21.60;99.90;;;;;;5032702;28;20564;-51
2022/06/14 09:46:37;;;;;;;4.50;3.37;;;21.70;99.90;;;;;;5033288;28;20485;-46
2022/06/14 09:49:49;;;;;;;3.33;3.03;;;21.80;99.90;;;;;;5032676;28;20492;-45
2022/06/14 09:53:03;;;;;;;3.97;3.60;;;21.80;99.90;;;;;;5033204;28;20462;-46
2022/06/14 09:55:44;;;;;;;5.23;3.67;;;21.80;99.90;;;;;;5028809;28;20446;-45
2022/06/14 09:58:50;;;;;;;4.23;3.53;;;21.90;99.90;;;;;;5032594;28;20442;-45
2022/06/14 10:01:28;;;;;;;3.27;2.90;;;22.10;99.90;;;;;;5032614;28;20501;-46
2022/06/14 10:04:30;;;;;;;4.00;3.43;;;21.80;99.90;;;;;;5032303;28;20478;-45
2022/06/14 10:07:30;;;;;;;3.37;3.07;;;22.00;99.90;;;;;;5032490;28;20469;-46
2022/06/14 10:10:16;;;;;;;3.60;3.27;;;22.20;99.90;;;;;;5028874;28;20469;-49
2022/06/14 10:13:17;;;;;;;4.70;3.30;;;22.30;99.90;;;;;;5032275;28;20497;-46
2022/06/14 10:15:54;;;;;;;5.53;3.23;;;22.30;99.90;;;;;;5032116;28;20823;-46
2022/06/14 10:18:39;;;;;;;4.83;2.90;;;22.30;99.90;;;;;;5031625;28;20947;-48
2022/06/14 10:21:12;;;;;;;5.37;2.63;;;22.30;99.90;;;;;;5031611;28;20501;-48
2022/06/14 10:24:16;;;;;;;4.37;3.60;;;22.40;99.90;;;;;;5032188;28;20548;-46
2022/06/14 10:30:05;;;;;;;3.27;2.97;;;22.50;99.90;;;;;;5031986;28;20421;-45
2022/06/14 10:32:59;;;;;;;5.90;3.20;;;22.40;99.90;;;;;;5032128;28;20462;-46
2022/06/14 10:35:33;;;;;;;3.40;3.10;;;22.40;99.90;;;;;;5031832;28;20474;-45
2022/06/14 10:38:27;;;;;;;3.80;2.47;;;22.50;99.90;;;;;;5032011;28;20453;-46
2022/06/14 10:40:59;;;;;;;3.47;3.17;;;22.60;99.90;;;;;;5031071;28;20516;-45
2022/06/14 10:43:35;;;;;;;5.10;2.70;;;22.60;99.90;;;;;;5031139;28;20565;-47
2022/06/14 10:46:09;;;;;;;4.00;3.00;;;22.60;99.90;;;;;;5031106;28;20942;-46
2022/06/14 10:49:23;;;;;;;10.10;3.13;;;22.70;99.90;;;;;;5031149;28;20492;-50
2022/06/14 10:52:06;;;;;;;3.77;3.47;;;22.70;99.90;;;;;;5031509;28;20525;-46
2022/06/14 10:54:45;;;;;;;3.37;2.93;;;22.70;99.90;;;;;;5031321;28;20450;-46
2022/06/14 10:57:30;;;;;;;3.20;2.90;;;22.70;99.90;;;;;;5031346;28;20525;-46
2022/06/14 11:00:08;;;;;;;3.33;3.03;;;22.70;99.90;;;;;;5031333;28;20462;-49
2022/06/14 11:03:06;;;;;;;3.43;2.87;;;22.70;99.90;;;;;;5030724;28;20543;-48
2022/06/14 11:05:44;;;;;;;5.67;2.90;;;22.80;99.90;;;;;;5031230;28;20618;-43
2022/06/14 11:08:28;;;;;;;2.70;2.50;;;22.90;99.90;;;;;;5031156;28;20485;-44
2022/06/14 11:11:22;;;;;;;2.53;2.33;;;22.90;99.90;;;;;;5031257;28;20484;-45
2022/06/14 11:13:59;;;;;;;3.13;2.50;;;22.90;99.90;;;;;;5031143;28;20864;-46
2022/06/14 11:16:35;;;;;;;4.23;3.10;;;22.90;99.90;;;;;;5031257;28;20450;-47
2022/06/14 11:19:25;;;;;;;3.00;2.70;;;22.90;99.90;;;;;;5030874;28;20485;-47
2022/06/14 11:22:02;;;;;;;3.27;2.30;;;23.00;99.90;;;;;;5031099;28;20458;-47
2022/06/14 11:24:39;;;;;;;7.20;2.70;;;23.00;99.90;;;;;;5031279;28;20457;-47
2022/06/14 11:27:20;;;;;;;3.20;2.40;;;23.10;99.90;;;;;;5031392;28;20460;-48
2022/06/14 11:29:56;;;;;;;2.00;1.80;;;23.20;99.90;;;;;;5030794;28;20481;-48
2022/06/14 11:32:29;;;;;;;4.37;2.23;;;23.20;99.90;;;;;;5031048;28;20458;-47
2022/06/14 11:35:12;;;;;;;3.30;2.10;;;23.30;99.90;;;;;;5031515;28;20438;-45
2022/06/14 11:37:54;;;;;;;2.47;2.27;;;23.40;99.90;;;;;;5031238;28;20438;-47
2022/06/14 11:40:25;;;;;;;3.23;1.80;;;23.40;98.60;;;;;;5030936;28;20442;-48
2022/06/14 11:43:17;;;;;;;2.60;1.90;;;23.50;99.50;;;;;;5031038;28;20492;-46
2022/06/14 11:45:51;;;;;;;4.40;2.20;;;23.50;97.10;;;;;;5030924;28;20558;-47
2022/06/14 11:48:26;;;;;;;2.13;1.80;;;23.60;98.20;;;;;;5031670;28;20450;-47
2022/06/14 11:51:01;;;;;;;3.13;2.07;;;23.60;96.00;;;;;;5030728;28;20493;-47
2022/06/14 11:53:47;;;;;;;2.23;1.90;;;23.60;97.60;;;;;;5031094;28;20452;-49
2022/06/14 11:56:22;;;;;;;3.10;2.03;;;23.70;95.30;;;;;;5030628;28;20468;-48
2022/06/14 11:59:11;;;;;;;3.03;2.40;;;23.70;97.30;;;;;;5030797;28;20492;-45
2022/06/14 12:01:46;;;;;;;2.17;1.97;;;23.80;95.20;;;;;;5032690;28;21007;-47
2022/06/14 12:04:28;;;;;;;2.60;1.90;;;23.80;96.70;;;;;;5034779;28;20483;-47
2022/06/14 12:07:07;;;;;;;3.50;2.00;;;23.80;94.00;;;;;;5034856;28;20988;-46
2022/06/14 12:10:10;;;;;;;4.70;2.40;;;23.80;97.20;;;;;;5034298;28;20442;-45
2022/06/14 12:12:49;;;;;;;4.80;2.60;;;23.90;95.20;;;;;;5021585;28;21002;-46
2022/06/14 12:15:18;;;;;;;3.10;1.93;;;23.90;93.30;;;;;;5034813;28;20520;-47
2022/06/14 12:17:52;;;;;;;2.50;2.00;;;23.90;94.30;;;;;;5034825;28;20501;-46
2022/06/14 12:20:20;;;;;;;3.50;2.10;;;24.00;93.60;;;;;;5033744;28;20477;-45
2022/06/14 12:22:59;;;;;;;1.70;1.60;;;24.00;91.60;;;;;;5034410;28;20509;-46
2022/06/14 12:28:20;;;;;;;2.40;2.00;;;24.10;93.40;;;;;;5034437;28;21211;-46
2022/06/14 12:30:50;;;;;;;16.93;3.27;;;24.10;94.00;;;;;;5033835;28;21015;-45
2022/06/14 12:33:29;;;;;;;2.93;1.70;;;24.10;89.00;;;;;;5034264;28;20476;-46
2022/06/14 12:36:05;;;;;;;2.43;2.23;;;24.00;91.40;;;;;;5033943;28;20934;-44
2022/06/14 12:38:39;;;;;;;1.73;1.53;;;24.00;93.20;;;;;;5034073;28;20441;-45
2022/06/14 12:41:16;;;;;;;2.83;2.63;;;24.10;90.40;;;;;;5033951;28;20497;-46
2022/06/14 12:43:56;;;;;;;4.50;1.57;;;24.20;92.90;;;;;;5033852;28;20848;-46
2022/06/14 12:46:28;;;;;;;2.07;1.87;;;24.10;86.00;;;;;;5034136;28;20441;-46
2022/06/14 12:49:00;;;;;;;5.47;2.40;;;24.10;91.30;;;;;;5033970;28;20446;-45
2022/06/14 12:51:31;;;;;;;3.03;2.00;;;24.20;90.10;;;;;;5034020;28;20894;-47
2022/06/14 12:54:13;;;;;;;2.63;2.43;;;24.20;91.00;;;;;;5033623;28;20447;-45
2022/06/14 12:56:46;;;;;;;3.73;2.13;;;24.30;91.90;;;;;;5033756;28;20450;-45
2022/06/14 12:59:20;;;;;;;16.10;3.37;;;24.30;89.20;;;;;;5033788;28;20481;-46
2022/06/14 13:01:57;;;;;;;2.90;1.87;;;24.40;88.70;;;;;;5033479;28;20978;-46
2022/06/14 13:04:29;;;;;;;2.70;1.90;;;24.50;85.50;;;;;;5033788;28;20478;-46
2022/06/14 13:07:20;;;;;;;41.07;7.20;;;24.50;88.80;;;;;;5033469;28;20461;-45
2022/06/14 13:10:00;;;;;;;9.33;1.73;;;24.50;89.00;;;;;;5033189;28;20450;-45
2022/06/14 13:12:38;;;;;;;61.67;8.60;;;24.40;90.30;;;;;;5033389;28;20466;-45
2022/06/14 13:15:11;;;;;;;2.57;2.00;;;24.40;87.00;;;;;;5033641;28;20450;-46
2022/06/14 13:17:58;;;;;;;3.43;2.50;;;24.40;91.60;;;;;;5033543;28;20447;-45
2022/06/14 13:20:33;;;;;;;2.13;1.93;;;24.50;89.90;;;;;;5032888;28;20822;-45
2022/06/14 13:23:14;;;;;;;2.10;1.90;;;24.50;88.10;;;;;;5033322;28;21069;-45
2022/06/14 13:26:02;;;;;;;2.20;1.70;;;24.50;90.20;;;;;;5033360;28;20446;-45
2022/06/14 13:28:47;;;;;;;3.37;2.00;;;24.50;90.30;;;;;;5033066;28;20450;-46
2022/06/14 13:31:32;;;;;;;2.00;1.80;;;24.40;88.60;;;;;;5033389;28;20825;-46
2022/06/14 13:34:12;;;;;;;24.07;2.67;;;24.60;90.00;;;;;;5033559;28;20474;-46
2022/06/14 13:36:48;;;;;;;5.80;2.77;;;24.70;91.20;;;;;;5032866;28;20485;-45
2022/06/14 13:39:26;;;;;;;4.33;2.20;;;24.90;88.40;;;;;;5032550;28;20521;-45
2022/06/14 13:42:02;;;;;;;2.10;1.87;;;24.80;86.90;;;;;;5032977;28;20497;-46
2022/06/14 13:44:36;;;;;;;4.60;2.20;;;24.80;91.50;;;;;;5032924;28;21010;-49
2022/06/14 13:47:09;;;;;;;9.70;2.40;;;24.70;89.20;;;;;;5033023;28;20445;-45